Time;durP1;ratioP1;P1;durP2;ratioP2;P2;SDS_P1;SDS_P2;PMS_P1;PMS_P2;Temp;Humidity;BMP_temperature;BMP_pressure;BME280_temperature;BME280_humidity;BME280_pressure;Samples;Min_cycle;Max_cycle;Signal;HPM_P1;HPM_P2
2021/07/08 00:02:02;;;;;;;;;;;;;;;19.77;83.62;98288.84;5025900;28;19932;-65
2021/07/08 00:06:26;;;;;;;;;;;;;;;19.74;84.54;98293.53;5047798;28;20051;-66
2021/07/08 00:08:51;;;;;;;;;;;;;;;19.67;84.30;98287.81;5025454;28;20375;-65
2021/07/08 00:11:17;;;;;;;;;;;;;;;19.93;83.18;98282.44;5008294;28;20622;-65
2021/07/08 00:15:37;;;;;;;;;;;;;;;20.56;81.00;98280.28;5080804;27;19917;-65
2021/07/08 00:18:05;;;;;;;;;;;;;;;20.14;81.87;98270.19;5067514;28;20351;-64
2021/07/08 00:20:30;;;;;;;;;;;;;;;20.17;81.52;98275.28;5067448;28;20378;-65
2021/07/08 00:22:56;;;;;;;;;;;;;;;19.82;83.02;98276.13;5066371;28;19928;-65
2021/07/08 00:25:26;;;;;;;;;;;;;;;19.68;84.15;98268.31;5067096;28;19948;-65
2021/07/08 00:27:52;;;;;;;;;;;;;;;19.57;84.62;98268.28;5065992;28;20408;-66
2021/07/08 00:30:19;;;;;;;;;;;;;;;20.05;83.20;98268.25;5063853;28;20535;-65
2021/07/08 00:32:44;;;;;;;;;;;;;;;19.64;83.90;98253.63;5064144;28;20586;-65
2021/07/08 00:35:09;;;;;;;;;;;;;;;20.60;80.16;98245.50;5066472;28;20455;-66
2021/07/08 00:39:00;;;;;;;;;;;;;;;19.91;82.20;98247.28;5045564;28;19916;-64
2021/07/08 00:41:26;;;;;;;;;;;;;;;20.35;81.89;98245.69;5029284;28;19925;-65
2021/07/08 00:43:52;;;;;;;;;;;;;;;20.09;82.22;98245.88;5043635;28;19924;-64
2021/07/08 00:46:21;;;;;;;;;;;;;;;19.99;81.98;98237.78;5047050;28;20661;-64
2021/07/08 00:48:46;;;;;;;;;;;;;;;19.76;83.18;98234.25;5043372;28;19998;-65
2021/07/08 00:51:11;;;;;;;;;;;;;;;19.79;83.82;98236.63;5044604;28;20049;-65
2021/07/08 00:53:36;;;;;;;;;;;;;;;19.54;83.94;98231.47;5044847;28;19916;-65
2021/07/08 00:56:03;;;;;;;;;;;;;;;19.88;83.07;98227.16;5043545;28;20481;-65
2021/07/08 00:58:28;;;;;;;;;;;;;;;19.51;84.43;98231.69;5044857;28;19927;-64
2021/07/08 01:00:53;;;;;;;;;;;;;;;19.71;83.62;98230.22;5044935;28;19920;-64
2021/07/08 01:03:20;;;;;;;;;;;;;;;19.38;85.25;98231.75;5045885;28;19913;-65
2021/07/08 01:05:47;;;;;;;;;;;;;;;19.24;85.93;98224.81;5043814;28;19951;-65
2021/07/08 01:08:13;;;;;;;;;;;;;;;19.34;85.65;98231.13;5044410;28;19956;-65
2021/07/08 01:10:38;;;;;;;;;;;;;;;19.52;85.18;98231.59;5042648;28;20002;-65
2021/07/08 01:13:06;;;;;;;;;;;;;;;19.27;85.91;98216.69;5043697;28;19963;-64
2021/07/08 01:16:35;;;;;;;;;;;;;;;19.33;85.53;98216.22;5061859;27;20344;-64
2021/07/08 01:19:01;;;;;;;;;;;;;;;19.36;85.41;98212.53;5064970;28;19946;-64
2021/07/08 01:21:26;;;;;;;;;;;;;;;19.21;86.29;98222.41;5066655;28;20298;-65
2021/07/08 01:23:53;;;;;;;;;;;;;;;19.20;86.87;98228.66;5064176;28;20367;-65
2021/07/08 01:26:39;;;;;;;;;;;;;;;19.41;85.34;98224.44;5039705;27;19948;-65
2021/07/08 01:29:04;;;;;;;;;;;;;;;19.77;83.62;98235.06;5026709;28;20035;-65
2021/07/08 01:31:29;;;;;;;;;;;;;;;19.75;83.91;98226.41;5038040;28;20069;-65
2021/07/08 01:33:55;;;;;;;;;;;;;;;19.36;85.45;98231.88;5045217;28;20017;-64
2021/07/08 01:36:20;;;;;;;;;;;;;;;19.28;86.29;98228.94;5046065;28;19943;-65
2021/07/08 01:38:45;;;;;;;;;;;;;;;19.08;87.50;98222.47;5045771;28;19917;-66
2021/07/08 01:41:11;;;;;;;;;;;;;;;19.07;87.75;98223.41;5044561;28;19921;-65
2021/07/08 01:43:38;;;;;;;;;;;;;;;18.91;88.25;98215.72;5045579;28;19917;-65
2021/07/08 01:46:07;;;;;;;;;;;;;;;19.13;87.57;98217.66;5045998;28;19925;-65
2021/07/08 01:48:33;;;;;;;;;;;;;;;19.12;87.60;98223.94;5043642;28;19917;-65
2021/07/08 01:51:02;;;;;;;;;;;;;;;19.28;87.08;98223.66;5043277;28;19925;-64
2021/07/08 01:53:28;;;;;;;;;;;;;;;19.43;85.76;98222.53;5045467;28;19916;-65
2021/07/08 01:55:53;;;;;;;;;;;;;;;19.74;83.91;98215.00;5043292;28;19927;-64
2021/07/08 01:58:18;;;;;;;;;;;;;;;19.45;85.33;98220.59;5045589;28;19924;-64
2021/07/08 02:00:43;;;;;;;;;;;;;;;19.25;86.47;98215.94;5043950;28;20418;-65
2021/07/08 02:03:09;;;;;;;;;;;;;;;19.33;85.86;98215.38;5044216;28;19932;-65
2021/07/08 02:05:34;;;;;;;;;;;;;;;19.18;86.93;98220.81;5044320;28;20298;-65
2021/07/08 02:07:59;;;;;;;;;;;;;;;19.35;85.98;98213.47;5045263;28;20470;-64
2021/07/08 02:10:24;;;;;;;;;;;;;;;19.39;85.63;98221.06;5043194;28;20482;-66
2021/07/08 02:12:50;;;;;;;;;;;;;;;19.17;86.50;98219.16;5046280;28;20470;-66
2021/07/08 02:15:15;;;;;;;;;;;;;;;18.80;88.66;98228.84;5044948;28;20311;-65
2021/07/08 02:17:40;;;;;;;;;;;;;;;19.04;88.09;98226.25;5043471;28;19976;-67
2021/07/08 02:20:07;;;;;;;;;;;;;;;19.36;86.05;98226.56;5044881;28;19992;-66
2021/07/08 02:22:33;;;;;;;;;;;;;;;19.16;87.22;98229.84;5043774;28;19972;-65
2021/07/08 02:24:58;;;;;;;;;;;;;;;18.98;88.61;98238.13;5043625;28;19921;-65
2021/07/08 02:27:24;;;;;;;;;;;;;;;19.07;88.22;98226.06;5043223;28;20015;-66
2021/07/08 02:31:47;;;;;;;;;;;;;;;19.19;87.90;98229.63;5026138;27;19929;-64
2021/07/08 02:34:12;;;;;;;;;;;;;;;19.04;88.82;98227.13;5016777;28;20007;-64
2021/07/08 02:36:38;;;;;;;;;;;;;;;18.72;90.11;98217.97;5015035;28;19924;-66
2021/07/08 02:39:04;;;;;;;;;;;;;;;18.75;90.46;98221.25;5021054;28;19924;-64
2021/07/08 02:41:30;;;;;;;;;;;;;;;18.88;89.31;98221.25;4999875;28;19925;-65
2021/07/08 02:43:55;;;;;;;;;;;;;;;18.87;89.10;98228.31;4996934;28;20292;-64
2021/07/08 02:46:20;;;;;;;;;;;;;;;18.67;89.58;98237.66;4992998;28;20599;-65
2021/07/08 02:52:34;;;;;;;;;;;;;;;18.58;90.37;98230.38;5045184;28;19929;-65
2021/07/08 02:56:11;;;;;;;;;;;;;;;19.03;88.05;98228.06;5083429;27;19951;-64
2021/07/08 02:58:37;;;;;;;;;;;;;;;19.11;87.58;98227.50;5058567;28;19924;-64
2021/07/08 03:01:03;;;;;;;;;;;;;;;19.81;84.63;98232.09;5058541;27;19955;-65
2021/07/08 03:03:29;;;;;;;;;;;;;;;19.62;84.91;98226.44;5062610;28;19917;-66
2021/07/08 03:05:54;;;;;;;;;;;;;;;19.77;84.69;98219.19;5055467;27;19921;-66
2021/07/08 03:08:19;;;;;;;;;;;;;;;20.36;81.91;98215.59;5054096;28;20349;-67
2021/07/08 03:10:45;;;;;;;;;;;;;;;20.21;81.85;98207.84;5053135;28;19917;-65
2021/07/08 03:13:10;;;;;;;;;;;;;;;19.67;84.57;98213.72;5056693;28;20039;-64
2021/07/08 03:15:35;;;;;;;;;;;;;;;19.42;85.58;98202.31;5058163;27;19917;-65
2021/07/08 03:18:01;;;;;;;;;;;;;;;19.07;87.57;98197.81;5054301;28;19916;-65
2021/07/08 03:20:27;;;;;;;;;;;;;;;19.15;86.95;98204.34;5061283;28;20464;-64
2021/07/08 03:22:53;;;;;;;;;;;;;;;19.30;86.33;98203.25;5055927;28;20570;-65
2021/07/08 03:25:19;;;;;;;;;;;;;;;19.14;87.51;98213.25;5050725;28;19956;-64
2021/07/08 03:27:44;;;;;;;;;;;;;;;19.14;87.14;98219.38;5053844;28;19913;-65
2021/07/08 03:30:11;;;;;;;;;;;;;;;19.07;87.94;98218.97;5055948;28;19976;-65
2021/07/08 03:34:05;;;;;;;;;;;;;;;19.57;85.19;98218.00;5076444;27;19916;-65
2021/07/08 03:36:30;;;;;;;;;;;;;;;19.72;85.03;98216.88;5067466;27;20361;-64
2021/07/08 03:38:55;;;;;;;;;;;;;;;20.16;82.60;98204.75;5056765;28;19916;-65
2021/07/08 03:41:20;;;;;;;;;;;;;;;19.77;84.06;98206.81;5055076;28;19920;-65
2021/07/08 03:43:46;;;;;;;;;;;;;;;19.64;84.15;98204.19;5055731;28;20393;-66
2021/07/08 03:46:11;;;;;;;;;;;;;;;19.57;85.13;98207.44;5055595;28;19920;-64
2021/07/08 03:48:36;;;;;;;;;;;;;;;19.62;84.45;98210.56;5055841;28;19925;-65
2021/07/08 03:53:15;;;;;;;;;;;;;;;19.54;85.43;98207.69;5085048;27;19912;-65
2021/07/08 03:55:40;;;;;;;;;;;;;;;19.50;85.99;98206.19;5079864;28;19924;-65
2021/07/08 03:58:05;;;;;;;;;;;;;;;19.24;87.26;98206.31;5065279;28;19928;-65
2021/07/08 04:00:35;;;;;;;;;;;;;;;19.10;88.35;98209.09;5069328;28;19920;-65
2021/07/08 04:03:05;;;;;;;;;;;;;;;19.18;87.65;98212.06;5093840;28;19969;-64
2021/07/08 04:05:31;;;;;;;;;;;;;;;19.41;86.41;98216.50;5086502;28;20048;-66
2021/07/08 04:07:57;;;;;;;;;;;;;;;19.90;84.24;98219.13;5087942;28;20428;-65
2021/07/08 04:10:22;;;;;;;;;;;;;;;19.67;85.49;98218.16;5086086;27;20220;-65
2021/07/08 04:12:47;;;;;;;;;;;;;;;19.34;87.01;98215.28;5086746;28;19954;-66
2021/07/08 04:15:13;;;;;;;;;;;;;;;19.14;88.39;98221.19;5086099;28;19916;-65
2021/07/08 04:17:38;;;;;;;;;;;;;;;18.89;89.82;98222.94;5085133;28;20546;-64
2021/07/08 04:20:05;;;;;;;;;;;;;;;18.83;90.68;98224.22;5087857;27;19916;-64
2021/07/08 04:22:30;;;;;;;;;;;;;;;18.74;91.02;98229.28;5085206;28;19939;-64
2021/07/08 04:24:56;;;;;;;;;;;;;;;18.98;89.94;98224.06;5084117;28;20916;-64
2021/07/08 04:27:21;;;;;;;;;;;;;;;19.01;89.59;98223.88;5084947;27;19927;-64
2021/07/08 04:29:46;;;;;;;;;;;;;;;18.92;90.03;98221.88;5086120;28;19920;-65
2021/07/08 04:32:11;;;;;;;;;;;;;;;19.14;88.35;98226.47;5087568;28;19977;-64
2021/07/08 04:34:37;;;;;;;;;;;;;;;19.27;88.07;98227.25;5085341;28;20329;-64
2021/07/08 04:37:03;;;;;;;;;;;;;;;19.53;86.52;98230.63;5086553;27;20278;-64
2021/07/08 04:39:28;;;;;;;;;;;;;;;19.38;87.05;98235.25;5083316;28;20405;-65
2021/07/08 04:41:53;;;;;;;;;;;;;;;19.24;88.01;98240.69;5083451;27;19952;-65
2021/07/08 04:44:19;;;;;;;;;;;;;;;19.27;88.07;98245.75;5084799;28;19964;-65
2021/07/08 04:46:44;;;;;;;;;;;;;;;19.50;86.95;98243.22;5083880;27;19921;-65
2021/07/08 04:49:09;;;;;;;;;;;;;;;19.54;86.75;98242.06;5084543;28;19916;-65
2021/07/08 04:51:36;;;;;;;;;;;;;;;19.31;87.64;98247.22;5083934;27;20015;-66
2021/07/08 04:54:02;;;;;;;;;;;;;;;19.07;89.42;98252.50;5085829;28;20519;-65
2021/07/08 04:56:27;;;;;;;;;;;;;;;19.75;85.94;98237.00;5084453;27;19920;-65
2021/07/08 04:58:52;;;;;;;;;;;;;;;19.92;84.63;98241.84;5081267;28;19954;-65
2021/07/08 05:02:03;;;;;;;;;;;;;;;20.09;83.95;98256.47;5025407;28;20566;-64
2021/07/08 05:04:28;;;;;;;;;;;;;;;19.89;84.92;98249.19;5017223;28;20538;-65
2021/07/08 05:06:53;;;;;;;;;;;;;;;19.80;85.63;98240.97;5014686;28;19941;-65
2021/07/08 05:09:18;;;;;;;;;;;;;;;20.06;83.85;98240.81;5019100;28;19987;-65
2021/07/08 05:11:43;;;;;;;;;;;;;;;19.72;85.89;98246.00;4989037;28;19930;-65
2021/07/08 05:14:09;;;;;;;;;;;;;;;19.92;84.83;98254.25;4987878;28;20512;-65
2021/07/08 05:18:06;;;;;;;;;;;;;;;19.34;88.98;98243.53;5049918;28;19948;-65
2021/07/08 05:20:32;;;;;;;;;;;;;;;19.84;86.16;98242.44;5051354;28;19929;-65
2021/07/08 05:23:04;;;;;;;;;;;;;;;19.96;84.84;98250.41;5070572;28;19928;-66
2021/07/08 05:25:29;;;;;;;;;;;;;;;19.58;86.76;98249.66;5068896;28;19929;-66
2021/07/08 05:27:55;;;;;;;;;;;;;;;19.52;88.16;98257.19;5070795;28;19921;-65
2021/07/08 05:30:20;;;;;;;;;;;;;;;19.73;86.91;98263.56;5067513;28;20431;-64
2021/07/08 05:32:45;;;;;;;;;;;;;;;19.71;86.89;98268.09;5069862;28;20421;-66
2021/07/08 05:36:46;;;;;;;;;;;;;;;19.32;88.64;98272.72;5032412;28;19951;-65
2021/07/08 05:39:11;;;;;;;;;;;;;;;19.43;88.98;98270.13;5021061;28;19929;-64
2021/07/08 05:41:36;;;;;;;;;;;;;;;19.53;88.96;98269.47;5020514;28;19926;-67
2021/07/08 05:44:02;;;;;;;;;;;;;;;19.64;89.72;98261.56;5020870;28;20671;-65
2021/07/08 05:46:27;;;;;;;;;;;;;;;19.99;89.06;98272.19;5021227;28;19932;-65
2021/07/08 05:48:53;;;;;;;;;;;;;;;20.06;88.94;98264.66;5022353;28;19937;-65
2021/07/08 05:51:18;;;;;;;;;;;;;;;19.86;88.46;98260.84;5019754;28;19928;-64
2021/07/08 05:53:43;;;;;;;;;;;;;;;19.48;89.58;98267.13;5020663;28;19917;-65
2021/07/08 05:56:09;;;;;;;;;;;;;;;19.64;89.09;98274.81;5020769;28;19925;-65
2021/07/08 05:58:36;;;;;;;;;;;;;;;19.67;89.78;98266.66;5020634;28;19921;-64
2021/07/08 06:01:02;;;;;;;;;;;;;;;19.52;90.47;98268.63;5019506;28;20036;-65
2021/07/08 06:03:27;;;;;;;;;;;;;;;19.60;90.82;98268.06;5020402;28;20000;-64
2021/07/08 06:05:52;;;;;;;;;;;;;;;19.40;90.85;98267.72;5019440;28;20107;-64
2021/07/08 06:08:17;;;;;;;;;;;;;;;19.60;90.73;98276.00;5020234;28;19924;-64
2021/07/08 06:10:43;;;;;;;;;;;;;;;19.62;89.53;98269.63;5019604;28;19926;-66
2021/07/08 06:13:09;;;;;;;;;;;;;;;19.55;89.71;98273.69;5020572;28;20574;-64
2021/07/08 06:15:35;;;;;;;;;;;;;;;19.14;92.17;98276.69;5019811;28;19964;-65
2021/07/08 06:19:40;;;;;;;;;;;;;;;19.20;92.21;98285.00;5041696;28;19917;-65
2021/07/08 06:22:05;;;;;;;;;;;;;;;19.41;90.41;98305.59;5048154;28;19982;-65
2021/07/08 06:24:30;;;;;;;;;;;;;;;19.52;90.35;98302.16;5053495;28;20479;-66
2021/07/08 06:26:55;;;;;;;;;;;;;;;19.39;91.33;98299.56;5052591;28;20019;-67
2021/07/08 06:29:20;;;;;;;;;;;;;;;19.52;91.55;98299.50;5051219;28;19971;-65
2021/07/08 06:31:46;;;;;;;;;;;;;;;19.25;92.63;98314.63;5050318;28;19967;-65
2021/07/08 06:34:11;;;;;;;;;;;;;;;19.13;93.65;98327.88;5053079;28;19921;-65
2021/07/08 06:36:36;;;;;;;;;;;;;;;19.28;92.84;98347.97;5053792;28;19996;-64
2021/07/08 06:39:03;;;;;;;;;;;;;;;19.19;93.41;98356.53;5053296;28;20027;-64
2021/07/08 06:41:28;;;;;;;;;;;;;;;19.34;93.20;98350.16;5050618;28;20382;-65
2021/07/08 06:43:53;;;;;;;;;;;;;;;19.44;91.88;98351.16;5052326;28;19924;-65
2021/07/08 06:46:26;;;;;;;;;;;;;;;19.49;91.76;98357.94;5050937;28;19928;-65
2021/07/08 06:48:51;;;;;;;;;;;;;;;19.33;93.17;98364.31;5052246;28;19916;-65
2021/07/08 06:51:16;;;;;;;;;;;;;;;19.48;91.48;98337.72;5051127;28;19927;-64
2021/07/08 06:53:41;;;;;;;;;;;;;;;20.76;84.54;98318.50;5053832;28;19917;-65
2021/07/08 06:56:06;;;;;;;;;;;;;;;20.36;87.04;98279.16;5048453;28;19940;-65
2021/07/08 06:58:32;;;;;;;;;;;;;;;20.59;84.96;98248.25;5051631;28;19920;-64
2021/07/08 07:00:57;;;;;;;;;;;;;;;20.22;86.64;98243.97;5051498;28;19932;-64
2021/07/08 07:03:22;;;;;;;;;;;;;;;20.84;84.31;98276.31;5051198;28;19948;-65
2021/07/08 07:05:47;;;;;;;;;;;;;;;20.83;83.32;98287.09;5050226;28;19921;-65
2021/07/08 07:08:13;;;;;;;;;;;;;;;21.81;79.13;98273.03;5048165;28;20507;-64
2021/07/08 07:10:38;;;;;;;;;;;;;;;21.88;77.90;98243.19;5050646;28;20674;-65
2021/07/08 07:13:09;;;;;;;;;;;;;;;21.49;79.91;98248.16;5050912;28;20388;-65
2021/07/08 07:15:34;;;;;;;;;;;;;;;21.65;79.21;98241.59;5051219;28;19921;-64
2021/07/08 07:18:03;;;;;;;;;;;;;;;21.31;80.83;98249.63;5050757;28;19920;-65
2021/07/08 07:20:29;;;;;;;;;;;;;;;21.20;81.38;98239.91;5051481;28;20475;-65
2021/07/08 07:22:54;;;;;;;;;;;;;;;20.67;84.26;98255.63;5050942;28;19916;-64
2021/07/08 07:25:20;;;;;;;;;;;;;;;20.95;83.08;98249.84;5048808;28;19996;-65
2021/07/08 07:27:49;;;;;;;;;;;;;;;20.69;84.72;98251.88;5050709;28;20574;-65
2021/07/08 07:30:14;;;;;;;;;;;;;;;20.69;84.81;98251.03;5042455;28;19917;-65
2021/07/08 07:32:39;;;;;;;;;;;;;;;20.59;85.08;98249.06;5038253;28;19912;-65
2021/07/08 07:35:05;;;;;;;;;;;;;;;21.30;81.00;98248.81;5037291;28;20298;-64
2021/07/08 07:37:30;;;;;;;;;;;;;;;21.43;80.50;98253.97;5038082;28;19921;-66
2021/07/08 07:39:55;;;;;;;;;;;;;;;21.69;79.08;98257.16;5037929;28;20052;-65
2021/07/08 07:42:21;;;;;;;;;;;;;;;21.26;80.72;98267.72;5033572;28;19994;-65
2021/07/08 07:44:50;;;;;;;;;;;;;;;20.73;84.41;98278.97;5037115;28;19921;-66
2021/07/08 07:47:16;;;;;;;;;;;;;;;20.10;88.06;98291.75;5036398;28;19979;-65
2021/07/08 07:49:41;;;;;;;;;;;;;;;19.76;90.46;98287.16;5037474;28;19959;-65
2021/07/08 07:52:07;;;;;;;;;;;;;;;20.06;88.53;98277.88;5038646;28;19921;-64
2021/07/08 07:54:33;;;;;;;;;;;;;;;20.15;88.61;98266.59;5037190;28;19974;-66
2021/07/08 07:57:01;;;;;;;;;;;;;;;20.57;85.41;98255.47;5036394;28;19924;-64
2021/07/08 07:59:26;;;;;;;;;;;;;;;20.28;87.94;98252.44;5035874;28;19968;-65
2021/07/08 08:01:51;;;;;;;;;;;;;;;19.99;89.46;98272.19;5037208;28;19968;-64
2021/07/08 08:04:17;;;;;;;;;;;;;;;19.91;89.64;98279.88;5036434;28;20268;-66
2021/07/08 08:09:26;;;;;;;;;;;;;;;20.04;89.83;98285.09;5035352;28;20346;-66
2021/07/08 08:11:52;;;;;;;;;;;;;;;20.03;89.19;98272.81;5037055;28;20362;-66
2021/07/08 08:14:18;;;;;;;;;;;;;;;20.51;86.17;98267.41;5038421;28;19950;-64
2021/07/08 08:16:43;;;;;;;;;;;;;;;20.96;83.35;98258.63;5036440;28;20315;-65
2021/07/08 08:19:08;;;;;;;;;;;;;;;20.91;83.65;98242.22;5034149;28;19925;-66
2021/07/08 08:21:33;;;;;;;;;;;;;;;20.40;88.79;98246.16;5034834;28;19924;-65
2021/07/08 08:23:59;;;;;;;;;;;;;;;20.38;89.66;98237.50;5036909;28;19917;-64
2021/07/08 08:26:26;;;;;;;;;;;;;;;20.93;85.15;98227.03;5037829;28;19924;-65
2021/07/08 08:28:51;;;;;;;;;;;;;;;20.75;86.96;98214.31;5034533;28;19983;-65
2021/07/08 08:31:17;;;;;;;;;;;;;;;20.93;86.29;98217.25;5035098;28;19926;-66
2021/07/08 08:33:42;;;;;;;;;;;;;;;20.43;88.98;98224.75;5038881;28;19924;-66
2021/07/08 08:36:07;;;;;;;;;;;;;;;20.35;88.82;98235.09;5035809;28;20043;-65
2021/07/08 08:38:33;;;;;;;;;;;;;;;20.53;87.91;98235.44;5036262;28;19961;-65
2021/07/08 08:40:58;;;;;;;;;;;;;;;20.85;88.00;98235.59;5034906;28;20321;-64
2021/07/08 08:43:23;;;;;;;;;;;;;;;20.63;89.34;98238.28;5036414;28;19961;-65
2021/07/08 08:45:49;;;;;;;;;;;;;;;20.13;92.43;98235.91;5035785;28;19968;-65
2021/07/08 08:48:14;;;;;;;;;;;;;;;20.22;92.79;98249.28;5036091;28;19917;-66
2021/07/08 08:50:44;;;;;;;;;;;;;;;20.25;94.63;98252.66;5035658;28;19964;-66
2021/07/08 08:53:10;;;;;;;;;;;;;;;20.49;94.29;98266.66;5036434;28;19919;-65
2021/07/08 08:56:38;;;;;;;;;;;;;;;20.90;88.36;98265.25;5042335;27;20048;-65
2021/07/08 08:59:03;;;;;;;;;;;;;;;20.61;91.31;98256.94;5027904;28;19940;-64
2021/07/08 09:01:30;;;;;;;;;;;;;;;20.84;90.65;98257.78;5010633;28;19932;-65
2021/07/08 09:03:55;;;;;;;;;;;;;;;20.81;88.63;98263.34;5008544;28;19917;-64
2021/07/08 09:06:21;;;;;;;;;;;;;;;20.40;86.76;98262.06;5010078;28;20322;-65
2021/07/08 09:08:49;;;;;;;;;;;;;;;20.52;89.29;98269.06;5007043;28;20016;-64
2021/07/08 09:11:35;;;;;;;;;;;;;;;20.50;87.16;98272.81;5058472;28;19951;-65
2021/07/08 09:14:05;;;;;;;;;;;;;;;20.71;86.23;98288.88;5053526;28;19921;-64
2021/07/08 09:16:31;;;;;;;;;;;;;;;20.58;86.00;98295.06;5058531;28;19963;-64
2021/07/08 09:19:26;;;;;;;;;;;;;;;20.35;88.40;98288.09;5055954;28;19983;-65
2021/07/08 09:21:53;;;;;;;;;;;;;;;20.49;86.58;98279.06;5045923;28;19927;-65
2021/07/08 09:24:19;;;;;;;;;;;;;;;21.57;81.62;98263.47;5065936;28;19916;-64
2021/07/08 09:27:08;;;;;;;;;;;;;;;20.98;84.91;98249.56;5058775;28;20451;-65
2021/07/08 09:29:38;;;;;;;;;;;;;;;21.36;82.63;98242.16;5058557;28;19931;-65
2021/07/08 09:32:11;;;;;;;;;;;;;;;21.18;83.57;98244.47;5076366;28;19927;-65
2021/07/08 09:34:37;;;;;;;;;;;;;;;21.81;79.63;98236.69;5080110;28;19920;-65
2021/07/08 09:37:04;;;;;;;;;;;;;;;21.63;80.55;98233.75;5079685;28;19920;-66
2021/07/08 09:39:31;;;;;;;;;;;;;;;21.51;82.09;98221.50;5079900;28;19962;-65
2021/07/08 09:41:57;;;;;;;;;;;;;;;21.16;87.05;98230.50;5079552;28;19924;-68
2021/07/08 09:44:25;;;;;;;;;;;;;;;20.85;90.68;98238.25;5080111;28;19916;-66
2021/07/08 09:46:52;;;;;;;;;;;;;;;20.95;90.72;98233.94;5079664;28;19924;-66
2021/07/08 09:49:17;;;;;;;;;;;;;;;21.13;86.47;98233.41;5080153;28;20015;-64
2021/07/08 09:51:44;;;;;;;;;;;;;;;20.97;88.74;98245.25;5079841;28;20026;-65
2021/07/08 09:54:25;;;;;;;;;;;;;;;20.99;86.30;98245.97;5079969;28;19920;-65
2021/07/08 09:58:05;;;;;;;;;;;;;;;21.14;85.23;98254.50;5048250;28;19917;-66
2021/07/08 10:00:32;;;;;;;;;;;;;;;21.32;85.42;98257.47;5053832;28;19936;-65
2021/07/08 10:02:58;;;;;;;;;;;;;;;21.47;82.29;98260.72;5069252;28;20210;-65
2021/07/08 10:05:27;;;;;;;;;;;;;;;21.48;83.10;98266.88;5068276;28;19923;-66
2021/07/08 10:07:52;;;;;;;;;;;;;;;21.38;81.80;98256.13;5067809;28;19912;-65
2021/07/08 10:10:17;;;;;;;;;;;;;;;21.70;86.33;98250.84;5066905;27;20635;-65
2021/07/08 10:13:30;;;;;;;;;;;;;;;21.49;87.26;98252.66;5069052;27;19943;-65
2021/07/08 10:15:56;;;;;;;;;;;;;;;21.58;84.70;98238.63;5049593;28;20022;-65
2021/07/08 10:18:22;;;;;;;;;;;;;;;22.04;84.61;98242.75;5023258;28;19992;-65
2021/07/08 10:20:48;;;;;;;;;;;;;;;22.50;78.30;98240.66;5029726;28;20314;-64
2021/07/08 10:23:14;;;;;;;;;;;;;;;21.48;76.89;98248.28;5043286;28;19917;-65
2021/07/08 10:25:41;;;;;;;;;;;;;;;22.39;77.57;98254.88;5040467;28;19921;-65
2021/07/08 10:28:07;;;;;;;;;;;;;;;22.57;81.67;98257.78;5044170;28;20011;-65
2021/07/08 10:30:32;;;;;;;;;;;;;;;22.36;80.80;98256.94;5047103;28;20039;-66
2021/07/08 10:32:59;;;;;;;;;;;;;;;23.11;74.70;98250.44;5042782;28;19921;-65
2021/07/08 10:37:33;;;;;;;;;;;;;;;22.41;75.20;98244.94;5048850;28;19951;-64
2021/07/08 10:40:00;;;;;;;;;;;;;;;22.42;76.07;98251.94;5039217;28;20275;-65
2021/07/08 10:42:42;;;;;;;;;;;;;;;22.82;75.20;98256.47;5046832;28;19921;-64
2021/07/08 10:45:35;;;;;;;;;;;;;;;22.91;74.19;98249.50;5038423;28;19929;-64
2021/07/08 10:48:17;;;;;;;;;;;;;;;22.85;73.65;98248.22;5028396;28;20279;-65
2021/07/08 10:50:43;;;;;;;;;;;;;;;22.78;73.50;98236.44;5026615;28;19969;-65
2021/07/08 10:53:14;;;;;;;;;;;;;;;22.67;74.69;98241.84;5028573;28;20015;-65
2021/07/08 10:55:40;;;;;;;;;;;;;;;22.81;74.89;98252.13;5029690;28;19921;-66
2021/07/08 10:58:07;;;;;;;;;;;;;;;22.79;73.08;98248.78;5027848;28;19959;-64
2021/07/08 11:00:46;;;;;;;;;;;;;;;22.84;76.33;98249.19;5028630;28;19995;-66
2021/07/08 11:03:47;;;;;;;;;;;;;;;23.12;73.25;98244.13;5026857;28;19928;-65
2021/07/08 11:06:30;;;;;;;;;;;;;;;23.09;71.21;98239.94;5047530;28;19929;-65
2021/07/08 11:09:05;;;;;;;;;;;;;;;23.24;72.87;98235.06;5049028;28;20418;-65
2021/07/08 11:11:30;;;;;;;;;;;;;;;23.27;73.39;98252.59;5046673;28;19928;-64
2021/07/08 11:13:56;;;;;;;;;;;;;;;23.24;73.15;98255.50;5048629;28;19916;-64
2021/07/08 11:16:43;;;;;;;;;;;;;;;23.22;70.65;98260.97;5048770;28;20444;-66
2021/07/08 11:19:29;;;;;;;;;;;;;;;23.14;70.53;98247.50;5048024;28;19966;-66
2021/07/08 11:21:57;;;;;;;;;;;;;;;23.59;68.95;98231.03;5040287;28;19928;-65
2021/07/08 11:26:10;;;;;;;;;;;;;;;23.55;70.81;98210.16;5052061;28;19928;-64
2021/07/08 11:28:35;;;;;;;;;;;;;;;23.70;69.36;98194.59;5048116;28;19921;-65
2021/07/08 11:31:04;;;;;;;;;;;;;;;23.89;68.66;98183.09;5046309;28;19928;-65
2021/07/08 11:33:32;;;;;;;;;;;;;;;23.83;68.99;98168.53;5048728;28;20801;-65
2021/07/08 11:36:00;;;;;;;;;;;;;;;24.04;68.13;98161.22;5046351;28;19921;-66
2021/07/08 11:38:26;;;;;;;;;;;;;;;23.26;70.50;98161.25;5046708;28;19913;-64
2021/07/08 11:40:52;;;;;;;;;;;;;;;23.28;70.94;98167.25;5047295;28;19921;-65
2021/07/08 11:43:19;;;;;;;;;;;;;;;22.92;72.19;98163.44;5048502;28;19916;-65
2021/07/08 11:45:45;;;;;;;;;;;;;;;23.66;69.94;98172.75;5047637;28;20443;-66
2021/07/08 11:48:10;;;;;;;;;;;;;;;23.51;70.76;98175.00;5046548;28;20058;-65
2021/07/08 11:50:36;;;;;;;;;;;;;;;23.25;70.83;98175.53;5048791;28;20288;-64
2021/07/08 11:53:10;;;;;;;;;;;;;;;22.79;70.62;98192.94;5050218;28;20019;-66
2021/07/08 11:55:36;;;;;;;;;;;;;;;22.42;73.19;98220.03;5047718;28;20019;-65
2021/07/08 11:58:04;;;;;;;;;;;;;;;22.18;75.69;98230.09;5048075;28;20016;-65
2021/07/08 12:00:31;;;;;;;;;;;;;;;22.38;75.20;98252.34;5045921;28;19921;-66
2021/07/08 12:02:57;;;;;;;;;;;;;;;22.20;74.53;98242.25;5048669;28;20446;-65
2021/07/08 12:06:54;;;;;;;;;;;;;;;23.01;72.09;98245.06;5041703;28;20046;-65
2021/07/08 12:09:21;;;;;;;;;;;;;;;22.99;71.60;98243.50;5047167;28;19974;-65
2021/07/08 12:11:51;;;;;;;;;;;;;;;23.05;70.81;98253.66;5039505;28;19917;-66
2021/07/08 12:14:16;;;;;;;;;;;;;;;22.89;71.76;98262.94;5039999;28;20521;-65
2021/07/08 12:16:43;;;;;;;;;;;;;;;23.38;70.54;98264.91;5039729;28;20015;-65
2021/07/08 12:19:08;;;;;;;;;;;;;;;23.50;70.00;98253.16;5039696;28;19963;-66
2021/07/08 12:21:35;;;;;;;;;;;;;;;23.19;71.73;98245.25;5039427;28;19921;-66
2021/07/08 12:24:02;;;;;;;;;;;;;;;23.01;73.85;98236.22;5039988;28;20098;-65
2021/07/08 12:26:32;;;;;;;;;;;;;;;22.66;74.63;98243.69;5039377;28;19932;-65
2021/07/08 12:29:13;;;;;;;;;;;;;;;22.62;72.41;98246.72;5039903;28;19924;-65
2021/07/08 12:31:50;;;;;;;;;;;;;;;22.41;76.01;98262.72;5038550;28;19974;-65
2021/07/08 12:34:16;;;;;;;;;;;;;;;22.19;77.89;98288.41;5039819;28;20525;-64
2021/07/08 12:36:41;;;;;;;;;;;;;;;22.30;75.60;98306.16;5039123;28;20015;-66
2021/07/08 12:39:06;;;;;;;;;;;;;;;22.26;74.71;98299.41;5039648;28;19917;-65
2021/07/08 12:41:32;;;;;;;;;;;;;;;22.48;75.50;98304.59;5039062;28;19967;-64
2021/07/08 12:43:59;;;;;;;;;;;;;;;22.38;75.61;98302.84;5039851;28;19944;-65
2021/07/08 12:46:30;;;;;;;;;;;;;;;22.41;76.20;98287.47;5038561;28;19925;-65
2021/07/08 12:48:56;;;;;;;;;;;;;;;22.31;77.40;98273.28;5039249;28;19921;-65
2021/07/08 12:51:21;;;;;;;;;;;;;;;22.57;76.09;98264.88;5038795;28;19971;-65
2021/07/08 12:53:47;;;;;;;;;;;;;;;22.57;75.12;98260.44;5039067;28;19921;-66
2021/07/08 12:56:13;;;;;;;;;;;;;;;22.26;75.03;98272.84;5039004;28;19964;-66
2021/07/08 12:58:38;;;;;;;;;;;;;;;21.88;76.59;98269.72;5039269;28;19917;-65
2021/07/08 13:01:04;;;;;;;;;;;;;;;22.05;75.80;98268.31;5038411;28;19975;-66
2021/07/08 13:03:31;;;;;;;;;;;;;;;22.38;75.66;98261.16;5039080;28;19924;-65
2021/07/08 13:06:10;;;;;;;;;;;;;;;22.40;77.53;98245.06;5038703;28;19929;-65
2021/07/08 13:08:35;;;;;;;;;;;;;;;22.19;78.50;98237.09;5039086;28;20448;-65
2021/07/08 13:11:27;;;;;;;;;;;;;;;22.00;79.28;98241.31;5038496;28;19956;-66
2021/07/08 13:13:52;;;;;;;;;;;;;;;22.61;74.96;98245.06;5037063;28;20712;-65
2021/07/08 13:16:18;;;;;;;;;;;;;;;22.19;78.12;98245.06;5035936;28;20018;-65
2021/07/08 13:18:44;;;;;;;;;;;;;;;21.92;81.37;98249.91;5024355;28;19936;-65
2021/07/08 13:21:19;;;;;;;;;;;;;;;21.72;80.89;98254.22;5024995;28;19925;-65